Main page
METAR-TAF:

METAR-TAF

Airports :

Faßberg Air Base

Faßberg, Germany

latitude: 52-55N, longitude: 010-11E, elevation: 75 m

Current weather observation

The report was made 1 hour and 6 minutes ago, at 04:20 UTC
Wind 2 kt from the South
Temperature 8°C
Humidity 93%
Pressure 1023 hPa
Visibility 10 km or more
Broken clouds at a height of 36000 ft

METAR: ETHS 200420Z 17002KT 9999 BKN360 08/07 Q1023 BLU+BLU+

Time: 07:26 (05:26 UTC)

Forecast

The report was made 1 hour and 11 minutes ago, at 04:15 UTC
Forecast valid from 20 at 05 UTC to 20 at 14 UTC
Wind 3 kt from the East
Visibility 10 km or more
Few clouds at a height of 2500 ft
Broken clouds at a height of 30000 ft

TAF: ETHS 200415Z 2005/2014 09003KT 9999 NSW FEW025 BKN300

Weather observations and forecasts of more than 4000 airports (METAR and TAF reports).

The available stations are represented by yellow and red dots on the map.

Hover mouse over dot to see the name of the station.

Then click to see weather observations and forecasts.

To change the map : click on the green buttons with a black cross to zoom in, on the green button with a dash to zoom out, or on the green arrows for adjacent maps.


METAR-TAF: